Time;durP1;ratioP1;P1;durP2;ratioP2;P2;SDS_P1;SDS_P2;PMS_P1;PMS_P2;Temp;Humidity;BMP_temperature;BMP_pressure;BME280_temperature;BME280_humidity;BME280_pressure;Samples;Min_cycle;Max_cycle;Signal;HPM_P1;HPM_P2
2023/08/31 00:01:04;;;;;;;3.37;3.07;;;13.70;99.90;;;;;;5012289;28;20210;-71
2023/08/31 00:03:30;;;;;;;8.77;2.57;;;13.70;99.90;;;;;;5014058;28;20178;-71
2023/08/31 00:05:56;;;;;;;3.37;3.00;;;13.70;99.90;;;;;;5011039;28;20198;-71
2023/08/31 00:08:22;;;;;;;5.63;3.50;;;13.70;99.90;;;;;;5011968;28;20461;-71
2023/08/31 00:10:58;;;;;;;3.73;3.27;;;13.70;99.90;;;;;;5012450;28;20469;-71
2023/08/31 00:13:24;;;;;;;3.70;3.13;;;13.70;99.90;;;;;;5012973;28;20182;-71
2023/08/31 00:15:49;;;;;;;4.70;3.73;;;13.70;99.90;;;;;;5011027;28;21006;-71
2023/08/31 00:18:16;;;;;;;3.67;3.37;;;13.60;99.90;;;;;;5011918;28;20186;-71
2023/08/31 00:20:42;;;;;;;4.53;3.30;;;13.60;99.90;;;;;;5011961;28;20182;-71
2023/08/31 00:23:08;;;;;;;3.57;3.27;;;13.60;99.90;;;;;;5009779;28;20807;-71
2023/08/31 00:25:33;;;;;;;9.40;3.50;;;13.50;99.90;;;;;;5012734;28;20551;-71
2023/08/31 00:28:04;;;;;;;3.53;3.23;;;13.50;99.90;;;;;;5011749;28;20190;-71
2023/08/31 00:30:31;;;;;;;5.17;3.63;;;13.50;99.90;;;;;;5011379;28;20237;-71
2023/08/31 00:33:00;;;;;;;3.13;2.93;;;13.40;99.90;;;;;;5005206;28;20473;-71
2023/08/31 00:35:27;;;;;;;4.03;3.63;;;13.30;99.90;;;;;;5010797;28;20441;-71
2023/08/31 00:37:56;;;;;;;4.27;3.20;;;13.30;99.90;;;;;;5009879;28;20442;-71
2023/08/31 00:40:22;;;;;;;5.80;4.10;;;13.30;99.90;;;;;;5010848;28;20945;-71
2023/08/31 00:42:48;;;;;;;4.20;3.80;;;13.30;99.90;;;;;;5013019;28;20441;-71
2023/08/31 00:45:13;;;;;;;4.70;3.60;;;13.30;99.90;;;;;;5013305;28;20186;-71
2023/08/31 00:47:39;;;;;;;6.10;3.57;;;13.20;99.90;;;;;;5009968;28;20645;-71
2023/08/31 00:50:07;;;;;;;4.47;4.07;;;13.20;99.90;;;;;;5011378;28;20191;-71
2023/08/31 00:52:33;;;;;;;4.90;2.70;;;13.20;99.90;;;;;;5011800;28;20576;-72
2023/08/31 00:55:00;;;;;;;4.20;3.80;;;13.10;99.90;;;;;;5012162;28;20813;-71
2023/08/31 00:57:27;;;;;;;5.60;4.37;;;13.00;99.90;;;;;;5007920;28;20544;-71
2023/08/31 00:59:52;;;;;;;3.67;3.37;;;13.00;99.90;;;;;;5012207;28;20417;-71
2023/08/31 01:03:03;;;;;;;4.07;3.67;;;12.90;99.90;;;;;;5011005;28;20895;-71
2023/08/31 01:05:55;;;;;;;5.63;4.97;;;12.90;99.90;;;;;;4952253;29;20181;-71
2023/08/31 01:08:44;;;;;;;5.27;4.53;;;12.90;99.90;;;;;;4933536;29;20495;-71
2023/08/31 01:11:19;;;;;;;4.07;3.50;;;12.80;99.90;;;;;;5002442;28;20430;-72
2023/08/31 01:13:52;;;;;;;3.77;3.47;;;12.70;99.90;;;;;;5013012;28;20500;-71
2023/08/31 01:16:19;;;;;;;4.77;4.07;;;12.70;99.90;;;;;;5011693;28;20469;-71
2023/08/31 01:18:46;;;;;;;8.33;4.00;;;12.70;99.90;;;;;;5008796;28;20442;-71
2023/08/31 01:21:21;;;;;;;4.00;3.60;;;12.60;99.90;;;;;;5012720;28;20426;-71
2023/08/31 01:23:51;;;;;;;4.57;4.10;;;12.60;99.90;;;;;;5011721;28;20443;-71
2023/08/31 01:26:17;;;;;;;6.00;4.63;;;12.60;99.90;;;;;;5005119;28;21029;-71
2023/08/31 01:28:43;;;;;;;5.53;3.97;;;12.50;99.90;;;;;;5009106;28;20437;-71
2023/08/31 01:31:09;;;;;;;5.67;4.60;;;12.50;99.90;;;;;;5008576;28;20188;-71
2023/08/31 01:33:35;;;;;;;4.63;3.90;;;12.50;99.90;;;;;;5004586;28;20920;-71
2023/08/31 01:36:08;;;;;;;6.13;3.67;;;12.50;99.90;;;;;;5010545;28;20464;-71
2023/08/31 01:38:37;;;;;;;5.03;4.53;;;12.50;99.90;;;;;;5007094;28;20655;-71
2023/08/31 01:41:07;;;;;;;7.20;4.43;;;12.40;99.90;;;;;;5011354;28;20429;-71
2023/08/31 01:43:34;;;;;;;7.13;4.30;;;12.40;99.90;;;;;;5011602;28;20513;-71
2023/08/31 01:46:00;;;;;;;4.40;3.43;;;12.40;99.90;;;;;;5009829;28;20993;-71
2023/08/31 01:48:26;;;;;;;4.60;4.20;;;12.30;99.90;;;;;;5008185;28;20488;-73
2023/08/31 01:50:52;;;;;;;5.43;3.60;;;12.30;99.90;;;;;;5009938;28;20194;-71
2023/08/31 01:53:17;;;;;;;4.60;3.87;;;12.30;99.90;;;;;;5004142;28;20481;-71
2023/08/31 01:55:43;;;;;;;4.17;3.87;;;12.30;99.90;;;;;;5011373;28;20698;-73
2023/08/31 01:58:08;;;;;;;4.73;4.23;;;12.40;99.90;;;;;;5008908;28;20194;-71
2023/08/31 02:00:35;;;;;;;4.80;4.20;;;12.40;99.90;;;;;;5009751;28;20175;-71
2023/08/31 02:03:01;;;;;;;4.03;3.37;;;12.50;99.90;;;;;;5012032;28;20200;-71
2023/08/31 02:05:27;;;;;;;4.00;3.70;;;12.50;99.90;;;;;;5010821;28;20491;-71
2023/08/31 02:07:52;;;;;;;3.00;2.80;;;12.60;99.90;;;;;;5009937;28;20890;-71
2023/08/31 02:10:18;;;;;;;4.23;3.30;;;12.60;99.90;;;;;;5010453;28;20179;-71
2023/08/31 02:12:44;;;;;;;4.17;3.70;;;12.60;99.90;;;;;;5010808;28;20215;-71
2023/08/31 02:15:09;;;;;;;5.30;3.57;;;12.60;99.90;;;;;;5011877;28;20194;-72
2023/08/31 02:17:35;;;;;;;3.80;3.50;;;12.60;99.90;;;;;;5009719;28;20215;-71
2023/08/31 02:20:02;;;;;;;4.10;3.53;;;12.60;99.90;;;;;;5009486;28;20179;-71
2023/08/31 02:22:31;;;;;;;4.80;3.63;;;12.60;99.90;;;;;;5011508;28;20638;-71
2023/08/31 02:24:56;;;;;;;3.93;3.43;;;12.50;99.90;;;;;;5016036;28;20433;-72
2023/08/31 02:27:22;;;;;;;4.23;3.80;;;12.50;99.90;;;;;;5014044;28;20508;-71
2023/08/31 02:29:47;;;;;;;3.70;3.40;;;12.60;99.90;;;;;;5006998;28;20735;-72
2023/08/31 02:32:13;;;;;;;4.67;3.70;;;12.60;99.90;;;;;;5008242;28;20213;-72
2023/08/31 02:34:38;;;;;;;5.57;3.40;;;12.70;99.90;;;;;;5010238;28;20594;-72
2023/08/31 02:37:04;;;;;;;4.80;3.40;;;12.70;99.90;;;;;;5013813;28;20202;-73
2023/08/31 02:39:29;;;;;;;3.83;3.20;;;12.70;99.90;;;;;;5012760;28;20203;-71
2023/08/31 02:41:55;;;;;;;3.30;2.63;;;12.80;99.90;;;;;;5011655;28;20711;-71
2023/08/31 02:44:20;;;;;;;3.87;3.57;;;12.80;99.90;;;;;;5015675;28;20817;-71
2023/08/31 02:46:46;;;;;;;11.33;3.97;;;12.80;99.90;;;;;;5015624;28;20278;-72
2023/08/31 02:49:11;;;;;;;6.83;5.23;;;12.80;99.90;;;;;;5012629;28;20214;-71
2023/08/31 02:51:37;;;;;;;4.30;3.90;;;12.80;99.90;;;;;;5013642;28;20241;-71
2023/08/31 02:54:04;;;;;;;3.77;3.47;;;12.80;99.90;;;;;;5013428;28;20229;-71
2023/08/31 02:56:30;;;;;;;4.50;4.07;;;12.80;99.90;;;;;;5014526;28;20652;-71
2023/08/31 02:58:55;;;;;;;5.50;3.83;;;12.80;99.90;;;;;;5007844;28;20449;-71
2023/08/31 03:01:23;;;;;;;4.50;3.97;;;12.80;99.90;;;;;;5014323;28;20382;-71
2023/08/31 03:03:48;;;;;;;4.10;3.70;;;12.80;99.90;;;;;;5013308;28;20179;-72
2023/08/31 03:06:15;;;;;;;4.03;3.60;;;12.80;99.90;;;;;;5014127;28;20479;-72
2023/08/31 03:08:40;;;;;;;7.90;4.40;;;12.80;99.90;;;;;;5012569;28;20262;-72
2023/08/31 03:11:06;;;;;;;4.50;3.70;;;12.70;99.90;;;;;;5015002;28;20564;-71
2023/08/31 03:13:33;;;;;;;4.97;4.10;;;12.70;99.90;;;;;;5014067;28;20206;-71
2023/08/31 03:15:59;;;;;;;4.90;4.40;;;12.60;99.90;;;;;;5014990;28;20469;-71
2023/08/31 03:18:25;;;;;;;5.13;4.63;;;12.60;99.90;;;;;;5012469;28;20456;-71
2023/08/31 03:20:50;;;;;;;4.00;3.70;;;12.50;99.90;;;;;;5013898;28;20426;-71
2023/08/31 03:23:16;;;;;;;5.30;4.47;;;12.60;99.90;;;;;;5012869;28;20852;-71
2023/08/31 03:25:43;;;;;;;4.07;3.67;;;12.50;99.90;;;;;;5014685;28;20225;-71
2023/08/31 03:28:09;;;;;;;3.83;3.53;;;12.40;99.90;;;;;;5012609;28;20532;-71
2023/08/31 03:30:35;;;;;;;4.80;4.40;;;12.40;99.90;;;;;;5011144;28;20187;-71
2023/08/31 03:33:01;;;;;;;7.50;4.80;;;12.40;99.90;;;;;;5010096;28;20476;-71
2023/08/31 03:35:27;;;;;;;5.47;5.07;;;12.30;99.90;;;;;;5011726;28;20187;-72
2023/08/31 03:37:55;;;;;;;5.83;4.20;;;12.30;99.90;;;;;;5013189;28;20632;-71
2023/08/31 03:40:22;;;;;;;4.17;3.80;;;12.30;99.90;;;;;;5011802;28;20446;-71
2023/08/31 03:42:49;;;;;;;5.13;3.97;;;12.30;99.90;;;;;;5013521;28;20492;-72
2023/08/31 03:45:14;;;;;;;5.00;4.60;;;12.30;99.90;;;;;;5010172;28;20446;-71
2023/08/31 03:47:40;;;;;;;8.23;6.13;;;12.30;99.90;;;;;;5011379;28;20481;-71
2023/08/31 03:50:06;;;;;;;4.40;3.93;;;12.30;99.90;;;;;;5013708;28;20205;-71
2023/08/31 03:52:32;;;;;;;4.03;3.70;;;12.30;99.90;;;;;;5013523;28;20222;-72
2023/08/31 03:54:57;;;;;;;4.53;4.13;;;12.30;99.90;;;;;;5012476;28;20438;-72
2023/08/31 03:57:23;;;;;;;4.93;4.53;;;12.30;99.90;;;;;;5010784;28;20194;-72
2023/08/31 03:59:48;;;;;;;4.80;4.40;;;12.30;99.90;;;;;;5010428;28;20228;-71
2023/08/31 04:02:14;;;;;;;4.60;4.20;;;12.30;99.90;;;;;;5012384;28;20190;-71
2023/08/31 04:04:40;;;;;;;5.47;4.97;;;12.40;99.90;;;;;;5011026;28;20191;-72
2023/08/31 04:07:06;;;;;;;6.80;4.23;;;12.40;99.90;;;;;;5011309;28;20243;-72
2023/08/31 04:09:32;;;;;;;6.13;4.17;;;12.40;99.90;;;;;;5010405;28;20273;-71
2023/08/31 04:11:57;;;;;;;8.17;4.60;;;12.40;99.90;;;;;;5013834;28;20564;-71
2023/08/31 04:14:23;;;;;;;4.70;4.30;;;12.40;99.90;;;;;;5011702;28;20191;-72
2023/08/31 04:16:50;;;;;;;6.60;4.30;;;12.40;99.90;;;;;;5013083;28;20230;-72
2023/08/31 04:19:16;;;;;;;5.10;4.60;;;12.40;99.90;;;;;;5011473;28;20175;-72
2023/08/31 04:21:42;;;;;;;5.00;4.50;;;12.40;99.90;;;;;;5010795;28;20869;-72
2023/08/31 04:24:08;;;;;;;5.43;4.50;;;12.30;99.90;;;;;;5011528;28;20571;-72
2023/08/31 04:26:33;;;;;;;4.40;4.00;;;12.30;99.90;;;;;;5010952;28;20469;-72
2023/08/31 04:28:59;;;;;;;5.50;3.90;;;12.20;99.90;;;;;;5009351;28;20183;-72
2023/08/31 04:31:24;;;;;;;6.43;4.37;;;12.20;99.90;;;;;;5011895;28;20211;-72
2023/08/31 04:33:53;;;;;;;6.87;4.87;;;12.10;99.90;;;;;;5012586;28;20183;-71
2023/08/31 04:36:22;;;;;;;12.10;5.10;;;12.10;99.90;;;;;;5009622;28;20201;-72
2023/08/31 04:38:48;;;;;;;8.53;5.43;;;12.00;99.90;;;;;;5008589;28;20560;-71
2023/08/31 04:41:15;;;;;;;8.07;5.20;;;12.00;99.90;;;;;;5012222;28;20440;-71
2023/08/31 04:43:40;;;;;;;5.40;4.60;;;12.10;99.90;;;;;;5012371;28;20459;-71
2023/08/31 04:46:06;;;;;;;5.07;4.67;;;12.00;99.90;;;;;;5011065;28;21197;-71
2023/08/31 04:48:32;;;;;;;4.90;4.53;;;12.00;99.90;;;;;;5008815;28;20652;-71
2023/08/31 04:50:58;;;;;;;6.33;5.10;;;12.00;99.90;;;;;;5012277;28;20219;-71
2023/08/31 04:53:23;;;;;;;6.33;4.97;;;12.00;99.90;;;;;;5012181;28;20473;-71
2023/08/31 04:55:49;;;;;;;8.97;6.90;;;12.00;99.90;;;;;;5011962;28;20586;-71
2023/08/31 04:58:14;;;;;;;5.03;4.53;;;12.00;99.90;;;;;;5011431;28;20179;-71
2023/08/31 05:00:40;;;;;;;5.33;3.90;;;12.00;99.90;;;;;;5009513;28;20194;-71
2023/08/31 05:03:06;;;;;;;5.60;4.80;;;12.00;99.90;;;;;;5009965;28;20179;-71
2023/08/31 05:05:31;;;;;;;6.73;4.93;;;12.00;99.90;;;;;;5010764;28;20183;-71
2023/08/31 05:07:57;;;;;;;13.33;4.90;;;12.00;99.90;;;;;;5010213;28;20755;-71
2023/08/31 05:10:23;;;;;;;5.90;5.27;;;12.00;99.90;;;;;;5011276;28;20167;-71
2023/08/31 05:12:48;;;;;;;5.30;4.80;;;12.00;99.90;;;;;;5005469;28;20466;-71
2023/08/31 05:15:14;;;;;;;5.90;5.03;;;12.10;99.90;;;;;;5011718;28;20186;-71
2023/08/31 05:17:39;;;;;;;9.40;5.00;;;12.10;99.90;;;;;;5011364;28;20672;-71
2023/08/31 05:20:08;;;;;;;6.73;4.53;;;12.10;99.90;;;;;;5011933;28;20198;-71
2023/08/31 05:22:34;;;;;;;5.33;4.43;;;12.20;99.90;;;;;;5008858;28;20183;-72
2023/08/31 05:25:00;;;;;;;5.47;4.97;;;12.20;99.90;;;;;;5011054;28;20476;-71
2023/08/31 05:27:26;;;;;;;6.73;6.07;;;12.20;99.90;;;;;;5009923;28;20516;-71
2023/08/31 05:29:51;;;;;;;6.63;5.60;;;12.30;99.90;;;;;;5007764;28;20458;-71
2023/08/31 05:32:17;;;;;;;5.47;4.53;;;12.30;99.90;;;;;;5009483;28;20202;-71
2023/08/31 05:34:42;;;;;;;6.53;5.87;;;12.50;99.90;;;;;;5004538;28;20175;-72
2023/08/31 05:37:08;;;;;;;4.53;4.13;;;12.50;99.90;;;;;;5012275;28;20191;-72
2023/08/31 05:39:34;;;;;;;5.33;4.60;;;12.60;99.90;;;;;;5009924;28;20649;-72
2023/08/31 05:42:00;;;;;;;5.80;4.87;;;12.60;99.90;;;;;;5012234;28;20179;-71
2023/08/31 05:44:25;;;;;;;9.00;7.20;;;12.70;99.90;;;;;;5012408;28;20175;-71
2023/08/31 05:46:51;;;;;;;9.20;6.90;;;12.80;99.90;;;;;;5010445;28;20210;-71
2023/08/31 05:49:16;;;;;;;7.53;4.87;;;12.90;99.90;;;;;;5007842;28;20203;-71
2023/08/31 05:51:42;;;;;;;7.03;5.50;;;13.00;99.90;;;;;;5011450;28;20203;-71
2023/08/31 05:54:11;;;;;;;5.37;4.40;;;13.00;99.90;;;;;;5010733;28;20265;-71
2023/08/31 05:56:40;;;;;;;7.03;4.30;;;13.00;99.90;;;;;;5010544;28;20241;-71
2023/08/31 05:59:06;;;;;;;10.27;6.50;;;13.00;99.90;;;;;;5009582;28;20441;-71
2023/08/31 06:01:32;;;;;;;7.87;4.93;;;13.00;99.90;;;;;;5011094;28;20450;-72
2023/08/31 06:03:57;;;;;;;9.57;8.33;;;13.10;99.90;;;;;;5011832;28;20429;-72
2023/08/31 06:06:23;;;;;;;6.60;6.00;;;13.20;99.90;;;;;;5012512;28;20199;-72
2023/08/31 06:08:49;;;;;;;6.93;4.83;;;13.20;99.90;;;;;;5008860;28;20237;-71
2023/08/31 06:11:15;;;;;;;10.77;4.63;;;13.40;99.90;;;;;;5003585;28;20193;-71
2023/08/31 06:13:40;;;;;;;6.63;5.17;;;13.60;99.90;;;;;;5008554;28;20469;-71
2023/08/31 06:16:07;;;;;;;5.13;4.67;;;13.50;99.90;;;;;;5011318;28;20211;-71
2023/08/31 06:18:32;;;;;;;7.03;4.60;;;13.60;99.90;;;;;;5009060;28;20186;-71
2023/08/31 06:20:58;;;;;;;6.10;4.33;;;13.80;99.90;;;;;;5007608;28;20743;-71
2023/08/31 06:23:23;;;;;;;6.33;5.73;;;14.00;99.90;;;;;;5010081;28;20652;-71
2023/08/31 06:25:49;;;;;;;6.07;4.80;;;14.10;99.90;;;;;;5010144;28;20294;-70
2023/08/31 06:28:14;;;;;;;4.90;4.03;;;14.10;99.90;;;;;;5010396;28;20608;-71
2023/08/31 06:30:46;;;;;;;10.60;4.90;;;14.20;99.90;;;;;;5008612;28;20186;-71
2023/08/31 06:33:11;;;;;;;4.97;4.47;;;14.40;99.90;;;;;;5009119;28;20214;-71
2023/08/31 06:35:37;;;;;;;5.90;5.30;;;14.60;99.90;;;;;;5011806;28;20512;-71
2023/08/31 06:38:03;;;;;;;5.37;3.40;;;14.80;99.90;;;;;;5011441;28;20194;-68
2023/08/31 06:40:28;;;;;;;4.63;4.00;;;15.00;99.90;;;;;;5007766;28;20637;-73
2023/08/31 06:42:54;;;;;;;3.93;3.40;;;15.30;99.90;;;;;;5008033;28;20207;-74
2023/08/31 06:45:19;;;;;;;7.27;3.90;;;15.40;99.90;;;;;;5005194;28;20641;-73
2023/08/31 06:47:45;;;;;;;3.80;3.27;;;15.60;99.90;;;;;;5005638;28;20211;-75
2023/08/31 06:50:10;;;;;;;4.50;3.80;;;15.80;99.90;;;;;;5001712;28;20183;-75
2023/08/31 06:52:36;;;;;;;3.90;3.57;;;16.00;99.90;;;;;;5006455;28;20569;-74
2023/08/31 06:55:03;;;;;;;5.00;3.60;;;16.20;99.90;;;;;;5007355;28;20261;-75
2023/08/31 06:57:28;;;;;;;4.50;3.90;;;16.30;99.90;;;;;;5010383;28;20279;-75
2023/08/31 06:59:54;;;;;;;8.30;3.63;;;16.60;99.90;;;;;;5009141;28;20457;-76
2023/08/31 07:02:22;;;;;;;4.60;3.20;;;17.00;99.90;;;;;;5008885;28;20179;-73
2023/08/31 07:04:48;;;;;;;5.70;3.10;;;16.90;99.90;;;;;;5010617;28;20437;-73
2023/08/31 07:07:14;;;;;;;3.80;3.07;;;17.10;99.90;;;;;;5008593;28;20479;-75
2023/08/31 07:09:42;;;;;;;3.60;3.30;;;17.10;99.90;;;;;;5006637;28;20910;-74
2023/08/31 07:12:08;;;;;;;4.70;2.97;;;16.90;99.90;;;;;;5014751;28;20544;-73
2023/08/31 07:14:33;;;;;;;9.17;3.40;;;16.80;99.90;;;;;;5014933;28;20521;-71
2023/08/31 07:16:59;;;;;;;5.17;3.40;;;16.70;99.90;;;;;;5014705;28;20735;-69
2023/08/31 07:19:25;;;;;;;3.90;3.50;;;16.60;99.90;;;;;;5013444;28;20202;-68
2023/08/31 07:21:50;;;;;;;4.20;3.10;;;16.40;99.90;;;;;;5014858;28;20213;-67
2023/08/31 07:24:16;;;;;;;4.00;3.60;;;16.10;99.90;;;;;;5014910;28;20231;-68
2023/08/31 07:26:41;;;;;;;3.40;3.10;;;15.90;99.90;;;;;;5014340;28;20201;-67
2023/08/31 07:29:07;;;;;;;4.20;3.10;;;15.80;99.90;;;;;;5014061;28;20254;-68
2023/08/31 07:31:32;;;;;;;3.67;3.37;;;16.20;99.90;;;;;;5011527;28;20245;-68
2023/08/31 07:33:58;;;;;;;4.40;3.10;;;16.40;99.90;;;;;;5014366;28;20178;-68
2023/08/31 07:36:24;;;;;;;5.97;3.30;;;16.80;99.90;;;;;;5011640;28;20206;-68
2023/08/31 07:38:50;;;;;;;11.73;3.67;;;17.20;99.90;;;;;;5011366;28;20206;-68
2023/08/31 07:41:15;;;;;;;4.50;2.93;;;17.40;99.90;;;;;;5014132;28;20422;-68
2023/08/31 07:43:41;;;;;;;3.67;3.37;;;17.50;99.90;;;;;;5013495;28;20182;-68
2023/08/31 07:46:06;;;;;;;2.93;2.70;;;17.70;99.90;;;;;;5012694;28;20194;-68
2023/08/31 07:48:32;;;;;;;9.00;2.87;;;17.90;99.90;;;;;;5006503;28;20186;-68
2023/08/31 07:50:57;;;;;;;4.90;2.73;;;18.00;99.90;;;;;;5013693;28;20183;-67
2023/08/31 07:53:23;;;;;;;3.53;3.23;;;18.00;99.90;;;;;;5010455;28;20298;-68
2023/08/31 07:55:54;;;;;;;3.70;2.53;;;18.20;99.90;;;;;;5006490;28;20207;-68
2023/08/31 07:58:20;;;;;;;3.87;2.50;;;18.40;99.90;;;;;;5011265;28;20171;-68
2023/08/31 08:00:46;;;;;;;4.97;3.77;;;18.50;99.90;;;;;;5010881;28;20946;-68
2023/08/31 08:03:11;;;;;;;4.00;3.20;;;18.50;99.90;;;;;;5008774;28;20446;-68
2023/08/31 08:05:37;;;;;;;2.57;2.33;;;18.80;99.90;;;;;;5010293;28;20190;-68
2023/08/31 08:08:03;;;;;;;3.50;2.47;;;18.90;99.90;;;;;;5008917;28;20549;-67
2023/08/31 08:10:28;;;;;;;3.07;2.77;;;18.80;99.90;;;;;;5007608;28;20825;-68
2023/08/31 08:12:56;;;;;;;6.50;2.83;;;18.90;99.90;;;;;;5007960;28;20265;-67
2023/08/31 08:15:21;;;;;;;2.40;2.30;;;19.10;99.90;;;;;;5008530;28;20190;-68
2023/08/31 08:17:48;;;;;;;4.00;2.80;;;19.30;99.90;;;;;;5012277;28;20465;-68
2023/08/31 08:20:13;;;;;;;4.67;2.87;;;19.40;99.90;;;;;;5009688;28;20182;-68
2023/08/31 08:22:39;;;;;;;2.83;2.20;;;19.70;99.90;;;;;;5011740;28;20438;-68
2023/08/31 08:25:05;;;;;;;4.00;2.83;;;19.90;99.90;;;;;;5011796;28;20244;-67
2023/08/31 08:27:32;;;;;;;5.83;3.00;;;19.90;99.90;;;;;;5012240;28;20221;-68
2023/08/31 08:29:58;;;;;;;3.80;3.00;;;20.00;99.90;;;;;;5004268;28;20445;-67
2023/08/31 08:32:24;;;;;;;3.77;2.77;;;20.00;99.90;;;;;;5009754;28;20478;-68
2023/08/31 08:34:50;;;;;;;3.73;2.67;;;20.80;99.90;;;;;;5010604;28;20799;-68
2023/08/31 08:37:16;;;;;;;3.07;2.20;;;21.30;99.90;;;;;;5012424;28;20205;-68
2023/08/31 08:39:42;;;;;;;3.13;2.30;;;21.50;99.90;;;;;;5009179;28;20446;-68
2023/08/31 08:42:10;;;;;;;4.83;2.40;;;21.50;99.90;;;;;;5013151;28;20214;-66
2023/08/31 08:44:36;;;;;;;4.00;2.30;;;21.30;99.90;;;;;;5011333;28;21641;-67
2023/08/31 08:47:02;;;;;;;3.20;2.50;;;21.50;99.70;;;;;;5013023;28;20453;-75
2023/08/31 08:49:33;;;;;;;2.70;2.50;;;21.40;99.90;;;;;;5008226;28;20179;-75
2023/08/31 08:51:59;;;;;;;3.20;2.17;;;21.60;99.90;;;;;;5011907;28;20466;-72
2023/08/31 08:54:25;;;;;;;2.87;2.30;;;21.60;99.90;;;;;;5013283;28;20795;-74
2023/08/31 08:56:50;;;;;;;5.53;2.70;;;21.30;99.90;;;;;;5012467;28;20511;-74
2023/08/31 08:59:16;;;;;;;2.80;2.50;;;21.20;99.90;;;;;;5007023;28;20190;-75
2023/08/31 09:01:42;;;;;;;2.93;2.50;;;20.80;99.90;;;;;;5010054;28;20213;-72
2023/08/31 09:04:09;;;;;;;3.00;2.80;;;20.40;99.90;;;;;;5010415;28;20191;-72
2023/08/31 09:06:35;;;;;;;5.20;3.20;;;20.20;99.90;;;;;;5012603;28;20472;-72
2023/08/31 09:09:01;;;;;;;5.40;3.03;;;19.90;99.90;;;;;;5009696;28;20688;-72
2023/08/31 09:11:26;;;;;;;4.23;2.90;;;19.70;99.90;;;;;;5012402;28;20166;-72
2023/08/31 09:13:52;;;;;;;4.63;2.40;;;20.10;99.90;;;;;;5010424;28;20532;-72
2023/08/31 09:16:28;;;;;;;4.30;2.83;;;20.60;99.90;;;;;;5010590;28;20238;-72
2023/08/31 09:18:55;;;;;;;2.97;2.77;;;20.80;99.90;;;;;;5009843;28;20437;-73
2023/08/31 09:21:21;;;;;;;2.50;2.30;;;21.20;99.90;;;;;;5012359;28;20429;-72
2023/08/31 09:23:59;;;;;;;8.40;3.07;;;22.00;99.90;;;;;;5010066;28;21011;-72
2023/08/31 09:26:24;;;;;;;3.30;2.97;;;22.00;98.40;;;;;;5003864;28;20445;-72
2023/08/31 09:28:50;;;;;;;3.40;2.20;;;21.90;98.30;;;;;;5004900;28;20527;-72
2023/08/31 09:31:16;;;;;;;3.80;2.80;;;21.20;98.20;;;;;;5010632;28;20171;-72
2023/08/31 09:33:52;;;;;;;6.70;3.37;;;21.10;99.90;;;;;;5008885;28;20192;-72
2023/08/31 09:36:18;;;;;;;4.63;2.60;;;21.60;97.90;;;;;;5004378;28;20444;-72
2023/08/31 09:38:44;;;;;;;2.37;2.10;;;22.20;93.50;;;;;;5009089;28;20442;-72
2023/08/31 09:41:10;;;;;;;3.40;2.50;;;22.60;90.50;;;;;;5010584;28;20442;-69
2023/08/31 09:43:36;;;;;;;4.20;2.80;;;23.00;92.00;;;;;;5010525;28;20504;-70
2023/08/31 09:46:03;;;;;;;2.93;2.30;;;23.00;83.80;;;;;;5012011;28;20202;-70
2023/08/31 09:48:30;;;;;;;3.70;2.40;;;23.10;81.70;;;;;;5008896;28;20278;-69
2023/08/31 09:50:57;;;;;;;3.27;2.10;;;23.80;82.30;;;;;;5009840;28;20437;-68
2023/08/31 09:53:24;;;;;;;2.63;2.40;;;24.70;73.90;;;;;;5009443;28;20454;-67
2023/08/31 09:55:52;;;;;;;4.67;3.00;;;24.90;75.40;;;;;;5008238;28;20456;-68
2023/08/31 09:58:20;;;;;;;2.53;2.30;;;25.10;69.30;;;;;;5008409;28;20458;-68
2023/08/31 10:00:46;;;;;;;2.40;2.20;;;25.00;64.90;;;;;;5009130;28;20486;-68
2023/08/31 10:03:15;;;;;;;2.70;2.50;;;23.90;68.80;;;;;;5001672;28;20441;-70
2023/08/31 10:05:44;;;;;;;3.63;2.57;;;22.90;72.00;;;;;;5005800;28;20430;-68
2023/08/31 10:08:11;;;;;;;4.73;2.47;;;23.40;72.10;;;;;;5008050;28;20441;-71
2023/08/31 10:10:39;;;;;;;3.70;2.70;;;23.30;70.00;;;;;;4999487;28;20434;-71
2023/08/31 10:13:05;;;;;;;3.13;2.50;;;23.40;69.90;;;;;;5001239;28;20912;-70
2023/08/31 10:15:35;;;;;;;2.73;2.50;;;23.10;70.70;;;;;;5001389;28;20470;-70
2023/08/31 10:18:05;;;;;;;4.13;2.50;;;23.70;69.80;;;;;;4994757;28;20448;-68
2023/08/31 10:20:32;;;;;;;6.70;3.03;;;24.20;71.30;;;;;;5001366;28;20441;-68
2023/08/31 10:23:04;;;;;;;2.80;2.20;;;25.70;65.10;;;;;;5003379;28;20430;-69
2023/08/31 10:25:45;;;;;;;4.93;2.70;;;26.80;59.80;;;;;;4996212;28;20865;-69
2023/08/31 10:28:24;;;;;;;4.47;2.60;;;26.60;59.30;;;;;;4997471;28;20663;-68
2023/08/31 10:31:07;;;;;;;2.97;2.50;;;25.10;58.90;;;;;;4999890;28;20580;-69
2023/08/31 10:33:43;;;;;;;3.27;2.63;;;24.00;63.10;;;;;;5006179;28;20468;-69
2023/08/31 10:36:19;;;;;;;5.30;2.43;;;23.70;65.20;;;;;;5006428;28;20492;-68
2023/08/31 10:38:46;;;;;;;5.27;2.90;;;23.60;66.40;;;;;;5006510;28;20500;-69
2023/08/31 10:41:11;;;;;;;4.10;2.30;;;23.30;65.40;;;;;;5000418;28;20517;-68
2023/08/31 10:43:55;;;;;;;4.70;3.17;;;22.70;68.60;;;;;;5006668;28;20513;-69
2023/08/31 10:46:34;;;;;;;4.57;3.13;;;22.50;70.90;;;;;;5003475;28;20211;-69
2023/08/31 10:49:20;;;;;;;6.17;2.60;;;22.70;70.80;;;;;;5006861;28;20433;-70
2023/08/31 10:51:50;;;;;;;5.97;2.70;;;22.90;68.80;;;;;;5004158;28;20523;-69
2023/08/31 10:54:26;;;;;;;4.47;2.43;;;24.40;65.90;;;;;;5003030;28;20524;-69
2023/08/31 10:56:54;;;;;;;3.20;2.47;;;25.40;64.60;;;;;;5012165;28;20535;-69
2023/08/31 10:59:20;;;;;;;5.47;3.17;;;25.30;61.00;;;;;;5012223;28;20417;-69
2023/08/31 11:02:02;;;;;;;3.63;2.60;;;25.20;61.30;;;;;;5001552;28;20550;-69
2023/08/31 11:04:29;;;;;;;4.43;2.70;;;25.70;58.90;;;;;;5009427;28;20463;-69
2023/08/31 11:07:17;;;;;;;6.77;3.13;;;27.40;56.70;;;;;;5008317;28;20540;-69
2023/08/31 11:09:44;;;;;;;3.37;2.33;;;28.30;53.90;;;;;;5011435;28;20813;-69
2023/08/31 11:12:10;;;;;;;3.50;2.33;;;28.50;51.40;;;;;;5014452;28;20532;-71
2023/08/31 11:14:36;;;;;;;3.80;3.00;;;30.10;52.80;;;;;;5011952;28;20986;-70
2023/08/31 11:17:04;;;;;;;3.33;2.97;;;30.00;52.20;;;;;;5015277;28;20478;-68
2023/08/31 11:19:30;;;;;;;3.00;2.70;;;32.20;53.30;;;;;;5009205;28;20229;-68
2023/08/31 11:21:56;;;;;;;3.87;2.23;;;33.10;51.70;;;;;;5014634;28;20429;-68
2023/08/31 11:24:21;;;;;;;3.30;2.77;;;32.10;51.40;;;;;;5014095;28;20182;-68
2023/08/31 11:26:51;;;;;;;6.03;2.90;;;30.60;52.10;;;;;;5009748;28;20234;-68
2023/08/31 11:29:17;;;;;;;6.63;2.60;;;30.60;51.90;;;;;;5006861;28;20182;-68
2023/08/31 11:31:43;;;;;;;3.63;2.80;;;31.90;51.20;;;;;;5010692;28;20919;-67
2023/08/31 11:34:15;;;;;;;4.27;2.50;;;31.40;49.50;;;;;;5004910;28;20517;-68
2023/08/31 11:36:42;;;;;;;4.07;2.50;;;29.90;50.70;;;;;;5011145;28;20718;-68
2023/08/31 11:39:10;;;;;;;5.33;2.90;;;28.80;53.10;;;;;;5013689;28;20760;-68
2023/08/31 11:41:40;;;;;;;5.10;3.00;;;28.50;51.90;;;;;;5012712;28;20430;-68
2023/08/31 11:44:08;;;;;;;7.10;3.00;;;27.70;52.50;;;;;;5010668;28;20414;-68
2023/08/31 11:46:34;;;;;;;6.00;2.90;;;26.50;54.40;;;;;;5003522;28;21027;-68
2023/08/31 11:49:00;;;;;;;3.73;2.43;;;26.30;54.20;;;;;;5004939;28;20940;-67
2023/08/31 11:51:29;;;;;;;5.73;3.30;;;25.80;55.60;;;;;;5014298;28;20410;-68
2023/08/31 11:53:56;;;;;;;4.67;3.60;;;25.30;55.10;;;;;;5011367;28;20730;-68
2023/08/31 11:56:21;;;;;;;3.97;2.80;;;24.30;57.20;;;;;;5010878;28;20549;-67
2023/08/31 11:58:50;;;;;;;5.10;3.37;;;23.70;58.80;;;;;;5006301;28;20521;-67
2023/08/31 12:01:21;;;;;;;5.67;3.07;;;23.20;60.20;;;;;;5008776;28;20659;-67
2023/08/31 12:03:47;;;;;;;7.70;2.80;;;23.60;60.70;;;;;;5002694;28;20835;-67
2023/08/31 12:06:18;;;;;;;7.07;3.10;;;24.60;59.30;;;;;;5006137;28;20535;-67
2023/08/31 12:08:44;;;;;;;5.53;3.20;;;24.70;57.90;;;;;;5005796;28;20562;-68
2023/08/31 12:11:09;;;;;;;4.60;2.90;;;23.90;59.40;;;;;;5008570;28;20534;-67
2023/08/31 12:13:35;;;;;;;4.47;2.93;;;23.80;60.50;;;;;;4994147;28;20207;-68
2023/08/31 12:16:04;;;;;;;3.40;2.43;;;23.60;63.60;;;;;;5011551;28;20721;-68
2023/08/31 12:18:33;;;;;;;4.93;2.87;;;23.00;64.50;;;;;;5010514;28;20178;-67
2023/08/31 12:20:58;;;;;;;5.53;2.70;;;22.50;68.50;;;;;;5013117;28;20509;-68
2023/08/31 12:23:25;;;;;;;4.20;2.13;;;22.50;66.60;;;;;;5013684;28;20910;-67
2023/08/31 12:25:52;;;;;;;4.20;2.33;;;22.40;70.00;;;;;;5013654;28;20588;-67
2023/08/31 12:28:18;;;;;;;3.63;2.13;;;22.30;69.00;;;;;;5011315;28;20437;-67
2023/08/31 12:30:56;;;;;;;3.10;2.80;;;22.10;70.20;;;;;;5013302;28;20428;-68
2023/08/31 12:33:22;;;;;;;3.80;2.53;;;21.80;71.90;;;;;;5013076;28;20580;-68
2023/08/31 12:35:48;;;;;;;4.33;2.33;;;21.70;73.20;;;;;;5013070;28;20477;-67
2023/08/31 12:38:14;;;;;;;3.47;1.97;;;22.90;71.90;;;;;;5008231;28;20473;-68
2023/08/31 12:40:39;;;;;;;5.30;2.53;;;24.50;65.50;;;;;;5010360;28;20167;-68
2023/08/31 12:43:06;;;;;;;3.17;2.87;;;24.80;62.40;;;;;;5013025;28;20213;-68
2023/08/31 12:45:32;;;;;;;6.50;3.90;;;24.70;63.30;;;;;;5012998;28;20652;-67